メインページ
METAR-TAF:

METAR-TAF

空港 :

カシディー国際空港

キリスィマスィ島, キリバス

緯度: 01-59N, 経度: 157-29W, 海抜: 3m

現時点の気象観測

当レポートは21分前の05:00(UTC)に作成
南東の風 4kt
気温
気圧 1011 hPa
視程10km以上
高度1900ftの雲はほとんどない
高度4000ftの雲は散在している
高度30000ftの千切れ雲あり

METAR: PLCH 200500Z 14004KT 9999 FEW019 SCT040 BKN300 Q1011

時間: 19:21 (05:21 UTC)

予報

当レポートは6時間14分前の23:07(UTC)に作成
予報は20日の 00時(UTC)から 20日の 24時(UTC)まで有効
北/北東の風 8kt
視程10km以上
高度1800ftの雲は散在している
高度4500ftの雲は散在している
弱いにわか雨

TAF: PLCH 192307Z 2000/2024 03008KT 9999 -SHRA SCT018 SCT045

4,000以上の空港の気象観測と天気予報(METAR報とTAF報)

利用可能な観測所は地図上に黄色い丸と赤い丸で示す。

丸の上にカーソルを重ねると観測所名を参照できる。

次にクリックすると気象観測と天気予報を参照できる。

マップの切り替え:黒色「×」印の緑ボタンをクリックして拡大、「-」印の緑ボタンをクリックして縮小、緑色の三角印をクリックして隣りの地図に切り替え


METAR-TAF: